createdAt,value
2022-12-11T00:00:48.036Z,89916.75
2022-12-11T00:03:17.096Z,89922.69
2022-12-11T00:05:44.965Z,89923.50
2022-12-11T00:08:12.687Z,89934.69
2022-12-11T00:10:39.610Z,89941.56
2022-12-11T00:13:06.806Z,89935.69
2022-12-11T00:15:33.472Z,89937.28
2022-12-11T00:18:00.254Z,89926.78
2022-12-11T00:20:27.255Z,89913.31
2022-12-11T00:22:53.995Z,89925.47
2022-12-11T00:25:20.636Z,89922.09
2022-12-11T00:27:47.589Z,89884.09
2022-12-11T00:30:14.793Z,89870.53
2022-12-11T00:32:41.510Z,89877.41
2022-12-11T00:35:08.852Z,89885.00
2022-12-11T00:37:35.870Z,89868.56
2022-12-11T00:40:02.766Z,89841.31
2022-12-11T00:42:29.428Z,89844.19
2022-12-11T00:44:56.516Z,89846.91
2022-12-11T00:47:23.799Z,89856.44
2022-12-11T00:49:50.447Z,89863.28
2022-12-11T00:52:18.185Z,89838.00
2022-12-11T00:54:45.614Z,89846.97
2022-12-11T00:57:12.326Z,89858.03
2022-12-11T00:59:39.354Z,89830.31
2022-12-11T01:02:06.153Z,89830.84
2022-12-11T01:04:36.218Z,89843.16
2022-12-11T01:07:03.228Z,89862.19
2022-12-11T01:09:48.453Z,89859.41
2022-12-11T01:12:15.145Z,89853.44
2022-12-11T01:14:41.899Z,89813.50
2022-12-11T01:17:08.667Z,89817.69
2022-12-11T01:19:35.300Z,89826.13
2022-12-11T01:22:02.013Z,89817.56
2022-12-11T01:24:28.750Z,89829.84
2022-12-11T01:26:55.439Z,89834.88
2022-12-11T01:29:22.118Z,89825.50
2022-12-11T01:31:48.783Z,89791.63
2022-12-11T01:34:15.479Z,89791.09
2022-12-11T01:36:42.109Z,89787.94
2022-12-11T01:39:09.147Z,89787.38
2022-12-11T01:41:35.827Z,89797.25
2022-12-11T01:44:16.190Z,89778.19
2022-12-11T01:46:43.915Z,89796.13
2022-12-11T01:49:17.565Z,89795.13
2022-12-11T01:51:56.710Z,89797.59
2022-12-11T01:54:24.476Z,89809.44
2022-12-11T01:56:55.289Z,89792.50
2022-12-11T01:59:27.054Z,89804.69
2022-12-11T02:01:59.549Z,89823.56
2022-12-11T02:04:26.967Z,89802.22
2022-12-11T02:06:53.879Z,89806.03
2022-12-11T02:09:23.792Z,89767.53
2022-12-11T02:12:12.244Z,89800.03
2022-12-11T02:14:46.202Z,89769.78
2022-12-11T02:17:12.841Z,89793.38
2022-12-11T02:19:51.035Z,89767.91
2022-12-11T02:22:39.749Z,89772.94
2022-12-11T02:25:56.792Z,89785.47
2022-12-11T02:28:48.455Z,89768.03
2022-12-11T02:31:42.404Z,89767.44
2022-12-11T02:34:12.227Z,89779.94
2022-12-11T02:36:44.899Z,89769.59
2022-12-11T02:39:14.507Z,89773.69
2022-12-11T02:41:47.286Z,89773.88
2022-12-11T02:44:16.880Z,89775.84
2022-12-11T02:46:44.763Z,89760.81
2022-12-11T02:49:13.980Z,89768.59
2022-12-11T02:51:42.677Z,89773.78
2022-12-11T02:54:21.946Z,89782.56
2022-12-11T02:56:58.084Z,89789.94
2022-12-11T02:59:32.780Z,89778.63
2022-12-11T03:01:59.550Z,89789.59
2022-12-11T03:04:26.589Z,89763.38
2022-12-11T03:07:00.056Z,89766.38
2022-12-11T03:09:28.484Z,89773.53
2022-12-11T03:11:55.212Z,89755.44
2022-12-11T03:14:21.932Z,89782.47
2022-12-11T03:17:08.209Z,89790.47
2022-12-11T03:19:39.778Z,89774.06
2022-12-11T03:22:15.942Z,89781.78
2022-12-11T03:25:28.514Z,89791.09
2022-12-11T03:28:07.697Z,89781.94
2022-12-11T03:30:36.909Z,89817.16
2022-12-11T03:33:12.046Z,89777.78
2022-12-11T03:35:49.437Z,89775.16
2022-12-11T03:38:45.397Z,89749.50
2022-12-11T03:41:13.806Z,89757.50
2022-12-11T03:43:41.504Z,89780.50
2022-12-11T03:46:10.514Z,89761.63
2022-12-11T03:48:42.521Z,89762.06
2022-12-11T03:51:09.649Z,89760.56
2022-12-11T03:53:38.674Z,89778.31
2022-12-11T03:56:08.631Z,89769.78
2022-12-11T03:58:35.842Z,89760.56
2022-12-11T04:01:02.514Z,89757.28
2022-12-11T04:03:29.275Z,89759.44
2022-12-11T04:05:56.112Z,89770.75
2022-12-11T04:08:23.976Z,89767.16
2022-12-11T04:11:10.753Z,89768.47
2022-12-11T04:13:38.028Z,89754.94
2022-12-11T04:16:05.298Z,89747.91
2022-12-11T04:18:51.106Z,89772.97
2022-12-11T04:21:39.445Z,89769.78
2022-12-11T04:24:16.627Z,89763.75
2022-12-11T04:26:47.640Z,89769.03
2022-12-11T04:29:15.065Z,89748.53
2022-12-11T04:31:41.823Z,89759.88
2022-12-11T04:34:08.507Z,89762.69
2022-12-11T04:36:35.885Z,89760.91
2022-12-11T04:39:03.512Z,89754.97
2022-12-11T04:41:30.791Z,89749.28
2022-12-11T04:43:57.483Z,89756.97
2022-12-11T04:46:25.081Z,89748.16
2022-12-11T04:48:57.370Z,89745.94
2022-12-11T04:51:25.365Z,89761.59
2022-12-11T04:53:52.238Z,89751.47
2022-12-11T04:56:19.160Z,89753.88
2022-12-11T04:58:46.430Z,89745.00
2022-12-11T05:01:18.849Z,89751.25
2022-12-11T05:03:51.414Z,89761.03
2022-12-11T05:06:18.190Z,89769.41
2022-12-11T05:08:45.647Z,89770.41
2022-12-11T05:11:14.952Z,89791.88
2022-12-11T05:13:42.386Z,89789.56
2022-12-11T05:16:11.663Z,89809.44
2022-12-11T05:18:38.706Z,89776.41
2022-12-11T05:21:08.607Z,89768.91
2022-12-11T05:23:35.802Z,89765.66
2022-12-11T05:26:05.771Z,89776.44
2022-12-11T05:28:34.805Z,89777.31
2022-12-11T05:31:04.759Z,89774.03
2022-12-11T05:33:32.164Z,89776.34
2022-12-11T05:35:58.926Z,89777.22
2022-12-11T05:38:25.843Z,89768.69
2022-12-11T05:41:14.471Z,89775.50
2022-12-11T05:43:42.493Z,89766.25
2022-12-11T05:46:16.939Z,89780.69
2022-12-11T05:48:46.226Z,89779.13
2022-12-11T05:51:15.268Z,89777.09
2022-12-11T05:53:43.228Z,89770.09
2022-12-11T05:56:14.251Z,89772.16
2022-12-11T05:58:42.766Z,89778.38
2022-12-11T06:01:39.406Z,89772.81
2022-12-11T06:04:07.548Z,89793.34
2022-12-11T06:06:35.021Z,89782.31
2022-12-11T06:09:02.133Z,89786.59
2022-12-11T06:11:30.686Z,89798.66
2022-12-11T06:13:57.919Z,89793.56
2022-12-11T06:16:25.461Z,89769.19
2022-12-11T06:18:55.840Z,89797.75
2022-12-11T06:21:30.159Z,89789.56
2022-12-11T06:23:59.112Z,89795.72
2022-12-11T06:26:27.284Z,89792.78
2022-12-11T06:28:54.270Z,89784.31
2022-12-11T06:31:21.647Z,89793.81
2022-12-11T06:33:48.633Z,89788.91
2022-12-11T06:36:21.463Z,89776.59
2022-12-11T06:38:48.698Z,89781.19
2022-12-11T06:41:16.069Z,89777.97
2022-12-11T06:43:43.223Z,89781.97
2022-12-11T06:46:15.735Z,89776.06
2022-12-11T06:48:43.593Z,89782.81
2022-12-11T06:51:15.428Z,89784.94
2022-12-11T06:53:42.385Z,89778.47
2022-12-11T06:56:14.230Z,89754.56
2022-12-11T06:58:41.891Z,89780.84
2022-12-11T07:01:19.102Z,89784.47
2022-12-11T07:03:46.771Z,89782.31
2022-12-11T07:06:14.034Z,89773.47
2022-12-11T07:08:40.836Z,89785.31
2022-12-11T07:11:10.907Z,89795.00
2022-12-11T07:13:37.703Z,89798.09
2022-12-11T07:16:10.843Z,89801.88
2022-12-11T07:18:39.399Z,89809.28
2022-12-11T07:21:06.900Z,89822.16
2022-12-11T07:23:34.829Z,89803.44
2022-12-11T07:26:10.084Z,89820.19
2022-12-11T07:28:36.978Z,89817.97
2022-12-11T07:31:13.006Z,89804.34
2022-12-11T07:33:40.350Z,89808.59
2022-12-11T07:36:09.670Z,89796.59
2022-12-11T07:38:36.761Z,89803.91
2022-12-11T07:41:05.541Z,89779.53
2022-12-11T07:43:33.417Z,89791.81
2022-12-11T07:46:08.843Z,89788.03
2022-12-11T07:48:37.012Z,89788.66
2022-12-11T07:51:17.004Z,89791.28
2022-12-11T07:53:45.395Z,89777.94
2022-12-11T07:56:12.459Z,89772.34
2022-12-11T07:58:39.752Z,89772.34
2022-12-11T08:01:11.778Z,89768.84
2022-12-11T08:03:38.573Z,89761.50
2022-12-11T08:06:05.622Z,89736.53
2022-12-11T08:08:32.361Z,89743.31
2022-12-11T08:11:03.693Z,89743.97
2022-12-11T08:13:30.597Z,89751.44
2022-12-11T08:15:58.260Z,89740.22
2022-12-11T08:18:25.276Z,89750.38
2022-12-11T08:20:51.986Z,89732.97
2022-12-11T08:23:18.625Z,89740.31
2022-12-11T08:25:45.270Z,89749.28
2022-12-11T08:28:11.921Z,89764.06
2022-12-11T08:30:40.243Z,89769.44
2022-12-11T08:33:07.169Z,89789.31
2022-12-11T08:35:33.841Z,89787.28
2022-12-11T08:38:00.433Z,89786.94
2022-12-11T08:40:27.144Z,89767.72
2022-12-11T08:42:53.866Z,89778.06
2022-12-11T08:45:20.561Z,89791.22
2022-12-11T08:47:47.353Z,89783.75
2022-12-11T08:50:14.059Z,89787.25
2022-12-11T08:52:40.728Z,89767.78
2022-12-11T08:55:07.883Z,89776.09
2022-12-11T08:57:34.632Z,89767.91
2022-12-11T09:00:01.260Z,89746.13
2022-12-11T09:02:27.955Z,89772.28
2022-12-11T09:04:54.708Z,89774.19
2022-12-11T09:07:21.339Z,89762.38
2022-12-11T09:09:48.493Z,89752.63
2022-12-11T09:12:15.209Z,89764.69
2022-12-11T09:14:41.987Z,89738.38
2022-12-11T09:17:08.985Z,89748.88
2022-12-11T09:19:35.621Z,89737.69
2022-12-11T09:22:02.338Z,89744.63
2022-12-11T09:24:29.035Z,89740.09
2022-12-11T09:26:55.866Z,89750.59
2022-12-11T09:29:22.703Z,89746.88
2022-12-11T09:31:49.811Z,89749.94
2022-12-11T09:34:16.444Z,89763.13
2022-12-11T09:36:44.347Z,89750.47
2022-12-11T09:39:12.716Z,89748.25
2022-12-11T09:41:46.725Z,89745.75
2022-12-11T09:44:38.316Z,89739.31
2022-12-11T09:47:17.721Z,89745.91
2022-12-11T09:49:46.475Z,89727.91
2022-12-11T09:52:37.539Z,89721.94
2022-12-11T09:55:13.729Z,89716.47
2022-12-11T09:57:46.604Z,89719.63
2022-12-11T10:00:26.635Z,89720.28
2022-12-11T10:03:08.991Z,89737.28
2022-12-11T10:05:47.832Z,89719.28
2022-12-11T10:08:17.256Z,89725.66
2022-12-11T10:10:54.299Z,89720.97
2022-12-11T10:13:45.632Z,89716.16
2022-12-11T10:16:28.352Z,89715.81
2022-12-11T10:18:55.658Z,89694.44
2022-12-11T10:21:22.986Z,89707.47
2022-12-11T10:23:58.497Z,89717.94
2022-12-11T10:26:25.235Z,89708.25
2022-12-11T10:28:52.137Z,89702.13
2022-12-11T10:31:30.909Z,89701.25
2022-12-11T10:34:08.345Z,89711.94
2022-12-11T10:36:38.858Z,89700.59
2022-12-11T10:39:22.433Z,89700.25
2022-12-11T10:41:51.723Z,89699.19
2022-12-11T10:44:30.528Z,89670.31
2022-12-11T10:47:06.114Z,89694.50
2022-12-11T10:49:34.928Z,89677.81
2022-12-11T10:52:09.431Z,89686.72
2022-12-11T10:54:48.879Z,89682.53
2022-12-11T10:57:16.004Z,89682.72
2022-12-11T10:59:48.142Z,89687.72
2022-12-11T11:02:32.034Z,89687.53
2022-12-11T11:05:01.008Z,89676.34
2022-12-11T11:07:30.368Z,89679.28
2022-12-11T11:10:10.201Z,89679.53
2022-12-11T11:12:45.899Z,89678.16
2022-12-11T11:15:17.976Z,89664.91
2022-12-11T11:17:55.757Z,89655.09
2022-12-11T11:20:29.232Z,89671.09
2022-12-11T11:23:02.012Z,89672.72
2022-12-11T11:25:31.187Z,89671.03
2022-12-11T11:28:01.291Z,89681.75
2022-12-11T11:30:28.360Z,89666.75
2022-12-11T11:33:00.874Z,89667.63
2022-12-11T11:35:31.310Z,89676.06
2022-12-11T11:38:09.403Z,89676.06
2022-12-11T11:40:46.776Z,89672.75
2022-12-11T11:43:17.745Z,89674.09
2022-12-11T11:45:51.922Z,89676.75
2022-12-11T11:48:41.057Z,89679.28
2022-12-11T11:51:24.904Z,89675.19
2022-12-11T11:53:55.716Z,89668.28
2022-12-11T11:56:28.384Z,89678.38
2022-12-11T11:59:16.421Z,89664.88
2022-12-11T12:01:43.877Z,89663.13
2022-12-11T12:04:11.652Z,89653.63
2022-12-11T12:06:57.393Z,89667.22
2022-12-11T12:09:46.280Z,89656.88
2022-12-11T12:12:34.360Z,89656.06
2022-12-11T12:15:15.404Z,89656.78
2022-12-11T12:17:55.452Z,89650.69
2022-12-11T12:20:43.473Z,89658.38
2022-12-11T12:23:36.977Z,89642.06
2022-12-11T12:26:22.971Z,89649.00
2022-12-11T12:29:32.691Z,89634.34
2022-12-11T12:32:08.351Z,89637.72
2022-12-11T12:35:05.722Z,89658.56
2022-12-11T12:38:05.566Z,89660.16
2022-12-11T12:40:39.488Z,89655.50
2022-12-11T12:43:20.883Z,89644.75
2022-12-11T12:46:09.196Z,89653.09
2022-12-11T12:48:36.259Z,89657.44
2022-12-11T12:51:04.435Z,89649.75
2022-12-11T12:53:35.163Z,89639.44
2022-12-11T12:56:03.545Z,89637.13
2022-12-11T12:58:43.093Z,89639.38
2022-12-11T13:01:14.670Z,89635.84
2022-12-11T13:04:06.467Z,89631.13
2022-12-11T13:06:44.511Z,89635.41
2022-12-11T13:09:24.726Z,89647.00
2022-12-11T13:11:55.051Z,89655.56
2022-12-11T13:14:30.390Z,89661.13
2022-12-11T13:17:34.747Z,89658.53
2022-12-11T13:20:16.306Z,89632.31
2022-12-11T13:23:05.775Z,89649.59
2022-12-11T13:25:45.616Z,89657.38
2022-12-11T13:28:28.749Z,89659.31
2022-12-11T13:31:16.925Z,89658.59
2022-12-11T13:33:53.473Z,89648.69
2022-12-11T13:36:24.371Z,89656.13
2022-12-11T13:39:04.691Z,89658.50
2022-12-11T13:41:37.960Z,89647.66
2022-12-11T13:44:07.099Z,89650.97
2022-12-11T13:46:36.956Z,89656.53
2022-12-11T13:49:07.021Z,89655.38
2022-12-11T13:51:36.279Z,89649.16
2022-12-11T13:54:05.895Z,89613.22
2022-12-11T13:56:32.872Z,89643.34
2022-12-11T13:58:59.688Z,89654.09
2022-12-11T14:01:33.744Z,89658.19
2022-12-11T14:04:06.959Z,89658.00
2022-12-11T14:06:36.306Z,89675.47
2022-12-11T14:09:05.252Z,89683.84
2022-12-11T14:11:36.957Z,89684.28
2022-12-11T14:14:07.199Z,89679.19
2022-12-11T14:16:34.383Z,89695.25
2022-12-11T14:19:07.971Z,89669.00
2022-12-11T14:21:36.316Z,89666.84
2022-12-11T14:24:06.597Z,89643.16
2022-12-11T14:26:35.503Z,89644.06
2022-12-11T14:29:02.991Z,89650.78
2022-12-11T14:31:43.752Z,89652.59
2022-12-11T14:34:24.597Z,89642.00
2022-12-11T14:36:51.563Z,89643.69
2022-12-11T14:39:28.949Z,89644.69
2022-12-11T14:42:04.571Z,89665.63
2022-12-11T14:44:39.922Z,89633.31
2022-12-11T14:47:16.784Z,89640.81
2022-12-11T14:50:03.395Z,89659.91
2022-12-11T14:52:44.290Z,89660.91
2022-12-11T14:55:22.019Z,89661.31
2022-12-11T14:57:52.956Z,89666.16
2022-12-11T15:00:23.097Z,89666.25
2022-12-11T15:03:02.023Z,89665.38
2022-12-11T15:05:29.734Z,89662.84
2022-12-11T15:08:02.475Z,89658.34
2022-12-11T15:10:41.274Z,89659.59
2022-12-11T15:13:09.611Z,89651.34
2022-12-11T15:15:47.713Z,89643.06
2022-12-11T15:18:23.351Z,89666.03
2022-12-11T15:20:56.311Z,89736.56
2022-12-11T15:23:22.995Z,89760.25
2022-12-11T15:25:56.075Z,89776.94
2022-12-11T15:28:26.972Z,89755.81
2022-12-11T15:31:05.918Z,89752.75
2022-12-11T15:33:34.705Z,89741.94
2022-12-11T15:36:07.232Z,89703.63
2022-12-11T15:38:37.730Z,89672.78
2022-12-11T15:41:05.578Z,89702.84
2022-12-11T15:43:36.544Z,89706.81
2022-12-11T15:46:04.978Z,89704.78
2022-12-11T15:48:31.887Z,89706.19
2022-12-11T15:50:58.768Z,89696.00
2022-12-11T15:53:25.648Z,89709.56
2022-12-11T15:55:53.128Z,89708.81
2022-12-11T15:58:24.260Z,89701.69
2022-12-11T16:00:51.655Z,89709.41
2022-12-11T16:03:19.639Z,89715.19
2022-12-11T16:05:46.812Z,89709.97
2022-12-11T16:08:15.772Z,89711.03
2022-12-11T16:10:43.635Z,89724.50
2022-12-11T16:13:14.536Z,89716.91
2022-12-11T16:15:44.064Z,89712.41
2022-12-11T16:18:13.437Z,89717.41
2022-12-11T16:20:42.230Z,89687.03
2022-12-11T16:23:10.224Z,89703.50
2022-12-11T16:25:39.520Z,89693.97
2022-12-11T16:28:07.209Z,89699.97
2022-12-11T16:30:36.676Z,89690.44
2022-12-11T16:33:11.751Z,89677.69
2022-12-11T16:35:39.551Z,89668.84
2022-12-11T16:38:06.327Z,89678.50
2022-12-11T16:40:33.011Z,89677.56
2022-12-11T16:42:59.681Z,89670.69
2022-12-11T16:45:27.366Z,89680.19
2022-12-11T16:47:54.843Z,89671.97
2022-12-11T16:50:24.236Z,89660.28
2022-12-11T16:52:50.945Z,89661.31
2022-12-11T16:55:21.236Z,89652.38
2022-12-11T16:57:48.439Z,89646.84
2022-12-11T17:00:15.969Z,89652.53
2022-12-11T17:02:42.759Z,89642.66
2022-12-11T17:05:10.224Z,89634.53
2022-12-11T17:07:37.753Z,89651.84
2022-12-11T17:10:05.003Z,89663.38
2022-12-11T17:12:31.816Z,89658.91
2022-12-11T17:14:58.542Z,89662.19
2022-12-11T17:17:25.622Z,89659.75
2022-12-11T17:19:52.458Z,89650.03
2022-12-11T17:22:19.271Z,89652.09
2022-12-11T17:24:45.956Z,89679.69
2022-12-11T17:27:14.025Z,89678.00
2022-12-11T17:29:40.820Z,89682.03
2022-12-11T17:32:07.821Z,89675.84
2022-12-11T17:34:38.414Z,89683.44
2022-12-11T17:37:11.309Z,89672.88
2022-12-11T17:39:38.136Z,89684.81
2022-12-11T17:42:04.883Z,89675.97
2022-12-11T17:44:31.657Z,89682.28
2022-12-11T17:46:59.116Z,89673.91
2022-12-11T17:49:26.433Z,89671.59
2022-12-11T17:51:55.504Z,89670.13
2022-12-11T17:54:23.696Z,89671.63
2022-12-11T17:56:50.753Z,89685.81
2022-12-11T17:59:18.161Z,89685.44
2022-12-11T18:01:44.959Z,89686.13
2022-12-11T18:04:13.004Z,89690.16
2022-12-11T18:06:39.816Z,89690.16
2022-12-11T18:09:07.225Z,89696.53
2022-12-11T18:11:34.907Z,89699.94
2022-12-11T18:14:02.095Z,89699.09
2022-12-11T18:16:32.084Z,89701.59
2022-12-11T18:18:59.185Z,89715.25
2022-12-11T18:21:30.994Z,89705.16
2022-12-11T18:23:58.108Z,89711.84
2022-12-11T18:26:25.446Z,89714.53
2022-12-11T18:28:53.430Z,89706.59
2022-12-11T18:31:22.009Z,89706.31
2022-12-11T18:33:49.212Z,89705.44
2022-12-11T18:36:17.841Z,89715.25
2022-12-11T18:38:45.394Z,89718.97
2022-12-11T18:41:13.500Z,89724.91
2022-12-11T18:43:40.984Z,89730.50
2022-12-11T18:46:15.973Z,89742.88
2022-12-11T18:48:42.815Z,89748.31
2022-12-11T18:51:12.193Z,89730.25
2022-12-11T18:53:39.676Z,89752.63
2022-12-11T18:56:09.903Z,89737.66
2022-12-11T18:58:37.097Z,89733.31
2022-12-11T19:01:14.154Z,89743.09
2022-12-11T19:03:41.394Z,89737.81
2022-12-11T19:06:10.024Z,89744.81
2022-12-11T19:08:37.164Z,89749.47
2022-12-11T19:11:04.467Z,89752.19
2022-12-11T19:13:31.378Z,89768.94
2022-12-11T19:15:58.156Z,89769.91
2022-12-11T19:18:26.848Z,89762.84
2022-12-11T19:21:03.277Z,89762.09
2022-12-11T19:23:33.305Z,89767.81
2022-12-11T19:26:00.026Z,89769.53
2022-12-11T19:28:26.807Z,89738.47
2022-12-11T19:30:53.501Z,89772.78
2022-12-11T19:33:20.181Z,89771.91
2022-12-11T19:35:47.045Z,89771.84
2022-12-11T19:38:14.029Z,89777.25
2022-12-11T19:40:43.239Z,89776.53
2022-12-11T19:43:10.856Z,89768.16
2022-12-11T19:45:37.644Z,89768.94
2022-12-11T19:48:05.236Z,89769.75
2022-12-11T19:50:31.868Z,89761.97
2022-12-11T19:52:58.621Z,89772.91
2022-12-11T19:55:25.822Z,89779.44
2022-12-11T19:57:52.519Z,89785.72
2022-12-11T20:00:20.310Z,89790.03
2022-12-11T20:02:49.078Z,89792.63
2022-12-11T20:05:16.120Z,89800.94
2022-12-11T20:07:44.715Z,89796.53
2022-12-11T20:10:11.595Z,89796.63
2022-12-11T20:12:38.581Z,89793.03
2022-12-11T20:15:06.201Z,89800.50
2022-12-11T20:17:33.665Z,89806.00
2022-12-11T20:20:00.624Z,89803.69
2022-12-11T20:22:27.544Z,89816.25
2022-12-11T20:24:54.620Z,89828.88
2022-12-11T20:27:21.335Z,89825.53
2022-12-11T20:29:48.051Z,89822.25
2022-12-11T20:32:14.790Z,89832.97
2022-12-11T20:34:41.505Z,89834.44
2022-12-11T20:37:08.280Z,89843.94
2022-12-11T20:39:35.667Z,89839.72
2022-12-11T20:42:04.987Z,89839.00
2022-12-11T20:44:32.340Z,89855.34
2022-12-11T20:46:59.514Z,89854.25
2022-12-11T20:49:26.378Z,89860.56
2022-12-11T20:51:53.753Z,89859.84
2022-12-11T20:54:20.934Z,89872.50
2022-12-11T20:56:47.739Z,89876.97
2022-12-11T20:59:14.467Z,89876.94
2022-12-11T21:01:41.507Z,89870.28
2022-12-11T21:04:08.651Z,89882.28
2022-12-11T21:06:37.630Z,89881.63
2022-12-11T21:09:17.768Z,89890.19
2022-12-11T21:11:44.519Z,89900.97
2022-12-11T21:14:11.238Z,89900.22
2022-12-11T21:16:38.098Z,89900.22
2022-12-11T21:19:05.854Z,89899.53
2022-12-11T21:21:36.898Z,89896.19
2022-12-11T21:24:03.898Z,89898.06
2022-12-11T21:26:30.934Z,89891.38
2022-12-11T21:28:57.695Z,89890.25
2022-12-11T21:31:24.898Z,89888.41
2022-12-11T21:33:51.730Z,89882.06
2022-12-11T21:36:18.503Z,89909.59
2022-12-11T21:38:46.516Z,89913.66
2022-12-11T21:41:15.721Z,89909.97
2022-12-11T21:44:14.633Z,89898.78
2022-12-11T21:46:31.161Z,89899.88
2022-12-11T21:48:58.017Z,89904.75
2022-12-11T21:51:32.563Z,89914.84
2022-12-11T21:54:05.406Z,89919.66
2022-12-11T21:56:32.551Z,89932.31
2022-12-11T21:59:01.423Z,89929.72
2022-12-11T22:01:32.418Z,89924.88
2022-12-11T22:03:59.625Z,89931.56
2022-12-11T22:06:26.316Z,89926.34
2022-12-11T22:08:53.324Z,89911.47
2022-12-11T22:11:23.560Z,89921.91
2022-12-11T22:13:50.263Z,89921.16
2022-12-11T22:16:17.137Z,89915.59
2022-12-11T22:18:44.142Z,89890.63
2022-12-11T22:21:10.924Z,89930.78
2022-12-11T22:23:39.682Z,89918.56
2022-12-11T22:26:07.183Z,89921.91
2022-12-11T22:28:34.228Z,89928.97
2022-12-11T22:31:15.224Z,89939.75
2022-12-11T22:33:42.143Z,89944.88
2022-12-11T22:36:10.771Z,89959.06
2022-12-11T22:38:38.435Z,89946.44
2022-12-11T22:41:24.854Z,89947.19
2022-12-11T22:43:52.064Z,89939.72
2022-12-11T22:46:20.680Z,89934.19
2022-12-11T22:48:47.668Z,89940.03
2022-12-11T22:51:15.783Z,89949.00
2022-12-11T22:53:42.598Z,89950.44
2022-12-11T22:56:11.674Z,89948.63
2022-12-11T22:58:38.799Z,89951.19
2022-12-11T23:01:17.597Z,89958.63
2022-12-11T23:03:44.392Z,89957.06
2022-12-11T23:06:13.467Z,89964.09
2022-12-11T23:08:41.813Z,89955.16
2022-12-11T23:11:22.204Z,89943.66
2022-12-11T23:13:48.932Z,89931.06
2022-12-11T23:16:15.651Z,89951.16
2022-12-11T23:18:43.230Z,89947.06
2022-12-11T23:21:11.183Z,89957.72
2022-12-11T23:23:38.284Z,89970.06
2022-12-11T23:26:06.639Z,89967.88
2022-12-11T23:28:33.408Z,89970.16
2022-12-11T23:31:00.570Z,89973.78
2022-12-11T23:33:27.377Z,89974.16
2022-12-11T23:35:54.104Z,89980.53
2022-12-11T23:38:21.075Z,89982.97
2022-12-11T23:40:48.501Z,89995.19
2022-12-11T23:43:15.265Z,89989.31
2022-12-11T23:45:45.466Z,89991.97
2022-12-11T23:48:13.750Z,89998.34
2022-12-11T23:50:42.359Z,89995.03
2022-12-11T23:53:09.465Z,90008.94
2022-12-11T23:55:37.954Z,90002.75
2022-12-11T23:58:04.595Z,90009.44
